Time;durP1;ratioP1;P1;durP2;ratioP2;P2;SDS_P1;SDS_P2;PMS_P1;PMS_P2;Temp;Humidity;BMP_temperature;BMP_pressure;BME280_temperature;BME280_humidity;BME280_pressure;Samples;Min_cycle;Max_cycle;Signal;HPM_P1;HPM_P2
2020/12/17 00:00:07;;;;;;;27.37;15.95;;;;;;;2.44;76.46;97516.19;1756842;78;21073;-86
2020/12/17 00:03:16;;;;;;;25.50;13.38;;;;;;;2.45;76.22;97517.87;1747175;79;21046;-86
2020/12/17 00:05:46;;;;;;;30.32;15.35;;;;;;;2.37;75.90;97522.99;1741106;78;21257;-87
2020/12/17 00:08:18;;;;;;;25.35;13.80;;;;;;;2.30;76.11;97518.16;1752839;79;22233;-85
2020/12/17 00:11:20;;;;;;;29.75;17.45;;;;;;;2.30;76.33;97521.59;1750013;80;21212;-85
2020/12/17 00:13:54;;;;;;;24.02;14.47;;;;;;;2.35;75.97;97524.81;1747629;80;21101;-86
2020/12/17 00:16:23;;;;;;;25.12;14.55;;;;;;;2.33;76.05;97529.25;1771312;80;21547;-87
2020/12/17 00:18:55;;;;;;;24.32;15.75;;;;;;;2.43;76.02;97526.17;1766555;80;21039;-87
2020/12/17 00:21:29;;;;;;;41.15;26.17;;;;;;;2.56;75.72;97538.97;1765639;80;21303;-84
2020/12/17 00:23:58;;;;;;;44.10;28.27;;;;;;;2.62;75.45;97528.27;1761699;80;21201;-87
2020/12/17 00:26:27;;;;;;;41.35;25.40;;;;;;;2.67;75.19;97529.72;1768537;80;21780;-86
2020/12/17 00:29:15;;;;;;;44.33;26.37;;;;;;;2.70;74.91;97543.47;1765991;80;21252;-86
2020/12/17 00:31:44;;;;;;;31.97;18.82;;;;;;;2.63;74.78;97546.84;1753352;80;21222;-86
2020/12/17 00:34:14;;;;;;;31.27;17.90;;;;;;;2.50;74.94;97549.68;1756052;80;22049;-87
2020/12/17 00:37:12;;;;;;;44.03;24.95;;;;;;;2.40;75.15;97547.98;1738410;80;21184;-85
2020/12/17 00:40:20;;;;;;;47.60;26.68;;;;;;;2.37;75.63;97552.02;1754925;80;21077;-87
2020/12/17 00:42:49;;;;;;;46.02;26.57;;;;;;;2.46;75.82;97552.03;1749442;80;21608;-85
2020/12/17 00:45:20;;;;;;;50.90;28.00;;;;;;;2.52;75.99;97557.77;1757855;80;21161;-86
2020/12/17 00:48:01;;;;;;;51.90;28.17;;;;;;;2.59;75.81;97553.95;1768030;80;21207;-86
2020/12/17 00:50:32;;;;;;;48.08;25.10;;;;;;;2.65;75.59;97553.64;1745665;80;21113;-87
2020/12/17 00:53:40;;;;;;;44.18;21.12;;;;;;;2.66;75.42;97552.72;1761845;80;21264;-83
2020/12/17 00:56:09;;;;;;;37.78;21.12;;;;;;;2.62;75.49;97562.06;1751790;80;21508;-86
2020/12/17 00:58:37;;;;;;;35.38;20.02;;;;;;;2.58;75.37;97560.06;1763628;80;21045;-86
2020/12/17 01:01:07;;;;;;;31.40;16.23;;;;;;;2.48;75.75;97562.73;1743171;81;21365;-85
2020/12/17 01:03:36;;;;;;;34.78;18.32;;;;;;;2.47;75.89;97567.55;1752466;80;21076;-85
2020/12/17 01:06:08;;;;;;;31.87;16.65;;;;;;;2.54;75.84;97560.28;1757686;80;21072;-86
2020/12/17 01:08:37;;;;;;;34.08;17.85;;;;;;;2.56;75.52;97564.52;1759344;80;21086;-85
2020/12/17 01:11:05;;;;;;;31.90;17.35;;;;;;;2.52;75.63;97563.43;1763258;80;21058;-85
2020/12/17 01:13:34;;;;;;;31.12;15.72;;;;;;;2.51;75.45;97556.55;1754889;80;21313;-86
2020/12/17 01:16:02;;;;;;;33.70;16.97;;;;;;;2.43;75.45;97558.67;1755114;80;21678;-85
2020/12/17 01:18:32;;;;;;;33.88;17.90;;;;;;;2.37;75.75;97558.08;1753404;80;21081;-86
2020/12/17 01:21:04;;;;;;;37.17;18.82;;;;;;;2.43;75.83;97551.71;1760059;80;22111;-85
2020/12/17 01:23:33;;;;;;;35.70;17.50;;;;;;;2.41;75.51;97547.06;1762429;80;21169;-86
2020/12/17 01:26:11;;;;;;;33.02;17.65;;;;;;;2.20;75.69;97545.06;1738729;80;22113;-87
2020/12/17 01:28:41;;;;;;;36.03;17.82;;;;;;;2.14;76.32;97547.50;1762639;79;21180;-86
2020/12/17 01:31:49;;;;;;;31.68;15.65;;;;;;;2.18;76.43;97538.23;1754137;79;21227;-85
2020/12/17 01:34:40;;;;;;;37.15;18.90;;;;;;;2.19;76.23;97538.62;1742878;80;21534;-86
2020/12/17 01:37:13;;;;;;;39.73;21.77;;;;;;;2.17;76.43;97532.20;1763134;80;21291;-83
2020/12/17 01:39:45;;;;;;;;;;;;;;;2.25;76.47;97531.36;1725283;82;21160;-86
2020/12/17 01:42:18;;;;;;;35.95;18.90;;;;;;;2.27;75.99;97534.75;1722076;82;20268;-87
2020/12/17 01:44:47;;;;;;;38.73;21.33;;;;;;;2.27;76.08;97533.91;1689117;83;21268;-86
2020/12/17 01:47:38;;;;;;;35.90;20.37;;;;;;;2.34;75.81;97532.69;1701696;82;21197;-85
2020/12/17 01:50:07;;;;;;;32.98;18.12;;;;;;;2.43;75.56;97540.47;1758504;80;21114;-87
2020/12/17 01:52:38;;;;;;;31.27;16.95;;;;;;;2.40;75.17;97544.08;1767398;80;22013;-86
2020/12/17 01:55:09;;;;;;;35.70;19.62;;;;;;;2.36;75.37;97535.58;1759371;80;21157;-86
2020/12/17 01:58:03;;;;;;;35.55;19.62;;;;;;;2.38;75.29;97536.83;1757891;80;21041;-87
2020/12/17 02:01:13;;;;;;;40.40;22.15;;;;;;;2.42;75.11;97538.34;1754747;80;21201;-84
2020/12/17 02:03:42;;;;;;;44.42;25.77;;;;;;;2.47;74.86;97539.42;1764842;80;21020;-83
2020/12/17 02:06:34;;;;;;;39.83;22.20;;;;;;;2.49;74.64;97534.55;1709603;81;21116;-85
2020/12/17 02:09:04;;;;;;;39.85;22.95;;;;;;;2.48;74.33;97535.89;1758262;79;21192;-87
2020/12/17 02:11:34;;;;;;;43.48;23.73;;;;;;;2.45;74.37;97539.50;1748773;80;21058;-86
2020/12/17 02:14:05;;;;;;;39.95;23.55;;;;;;;2.43;74.25;97530.08;1762230;80;22051;-86
2020/12/17 02:17:12;;;;;;;44.20;24.52;;;;;;;2.39;74.37;97526.34;1740501;80;21072;-85
2020/12/17 02:19:44;;;;;;;47.48;27.42;;;;;;;2.39;74.25;97519.01;1759901;80;21353;-87
2020/12/17 02:22:51;;;;;;;57.95;31.02;;;;;;;2.34;73.97;97514.49;1752857;80;21074;-86
2020/12/17 02:25:21;;;;;;;50.23;30.75;;;;;;;2.17;74.25;97512.72;1753974;80;21100;-86
2020/12/17 02:27:51;;;;;;;46.02;26.23;;;;;;;2.15;74.51;97514.56;1765813;80;21128;-84
2020/12/17 02:30:29;;;;;;;34.65;18.50;;;;;;;2.16;74.50;97511.50;1758978;80;21828;-85
2020/12/17 02:33:00;;;;;;;36.65;20.17;;;;;;;2.13;74.40;97501.66;1759997;80;21136;-86
2020/12/17 02:35:33;;;;;;;36.93;20.30;;;;;;;2.08;74.53;97507.52;1739306;80;21070;-86
2020/12/17 02:38:12;;;;;;;38.05;20.82;;;;;;;2.09;74.71;97503.16;1750978;80;21295;-87
2020/12/17 02:41:21;;;;;;;32.30;17.52;;;;;;;2.02;74.60;97503.92;1754703;80;21255;-86
2020/12/17 02:43:53;;;;;;;32.48;17.82;;;;;;;1.98;74.72;97507.58;1757956;80;21049;-85
2020/12/17 02:46:28;;;;;;;36.40;20.52;;;;;;;1.88;74.75;97507.63;1766047;80;21199;-86
2020/12/17 02:49:35;;;;;;;34.13;19.60;;;;;;;1.73;74.92;97508.37;1757687;80;21260;-85
2020/12/17 02:52:06;;;;;;;46.25;26.27;;;;;;;1.51;75.30;97509.36;1725948;82;21132;-84
2020/12/17 02:54:47;;;;;;;43.58;23.80;;;;;;;1.43;75.98;97509.34;1716355;81;21068;-85
2020/12/17 02:57:17;;;;;;;45.00;25.30;;;;;;;1.45;76.12;97507.05;1726806;82;21282;-86
2020/12/17 02:59:46;;;;;;;39.10;22.60;;;;;;;1.45;76.15;97510.94;1755655;80;21179;-85
2020/12/17 03:02:53;;;;;;;44.73;24.85;;;;;;;1.44;76.53;97505.82;1758115;80;21093;-86
2020/12/17 03:06:02;;;;;;;37.40;20.20;;;;;;;1.53;76.41;97507.52;1750294;80;21225;-85
2020/12/17 03:08:30;;;;;;;35.10;18.77;;;;;;;1.48;76.21;97497.83;1756772;80;21066;-86
2020/12/17 03:11:01;;;;;;;36.88;20.88;;;;;;;1.45;76.39;97489.33;1760205;80;21295;-86
2020/12/17 03:16:24;;;;;;;36.23;19.37;;;;;;;1.54;76.42;97497.55;1822073;77;28874;-84
2020/12/17 03:18:56;;;;;;;34.58;19.50;;;;;;;1.50;76.41;97496.00;1759275;81;21069;-85
2020/12/17 03:21:32;;;;;;;37.75;19.12;;;;;;;1.59;76.54;97498.61;1769510;78;21219;-85
2020/12/17 03:24:39;;;;;;;32.50;17.77;;;;;;;1.59;76.29;97498.61;1758449;81;21121;-85
2020/12/17 03:27:09;;;;;;;32.20;17.95;;;;;;;1.54;76.12;97491.06;1769383;81;21158;-87
2020/12/17 03:29:50;;;;;;;36.35;19.48;;;;;;;1.50;76.28;97489.51;1759225;81;21145;-86
2020/12/17 03:32:19;;;;;;;37.23;18.98;;;;;;;1.53;76.43;97489.81;1767819;81;21593;-86
2020/12/17 03:34:49;;;;;;;39.95;21.17;;;;;;;1.53;76.32;97490.65;1759414;81;21447;-84
2020/12/17 03:37:39;;;;;;;35.20;20.80;;;;;;;1.53;76.23;97488.05;1767872;81;21180;-86
2020/12/17 03:40:10;;;;;;;36.00;21.27;;;;;;;1.50;76.48;97489.51;1758967;81;21113;-85
2020/12/17 03:42:43;;;;;;;39.42;22.15;;;;;;;1.53;76.54;97486.75;1768889;81;21060;-86
2020/12/17 03:45:35;;;;;;;49.45;25.55;;;;;;;1.51;76.47;97490.34;1757533;81;21065;-84
2020/12/17 03:48:04;;;;;;;40.05;22.45;;;;;;;1.43;76.41;97483.39;1768698;81;21534;-86
2020/12/17 03:50:34;;;;;;;40.60;21.77;;;;;;;1.34;76.45;97483.33;1759040;81;21078;-84
2020/12/17 03:53:22;;;;;;;41.85;23.00;;;;;;;1.27;76.79;97480.64;1767983;81;21084;-84
2020/12/17 03:55:52;;;;;;;41.42;22.87;;;;;;;1.27;77.10;97480.64;1758729;81;21156;-85
2020/12/17 03:58:58;;;;;;;39.30;22.62;;;;;;;1.40;77.37;97486.95;1751663;80;21153;-85
2020/12/17 04:02:06;;;;;;;37.20;21.12;;;;;;;1.56;76.93;97484.49;1758447;81;21180;-85
2020/12/17 04:04:35;;;;;;;37.48;21.60;;;;;;;1.63;76.46;97475.50;1767705;81;21680;-85
2020/12/17 04:07:05;;;;;;;34.10;19.75;;;;;;;1.60;76.24;97482.98;1758389;81;21077;-83
2020/12/17 04:09:34;;;;;;;34.27;19.25;;;;;;;1.60;76.47;97480.39;1768356;81;21120;-86
2020/12/17 04:12:04;;;;;;;33.02;18.98;;;;;;;1.68;76.29;97481.31;1759094;81;21443;-85
2020/12/17 04:14:36;;;;;;;30.88;17.67;;;;;;;1.67;75.75;97483.99;1766026;81;21377;-87
2020/12/17 04:17:45;;;;;;;30.77;17.65;;;;;;;1.63;75.81;97481.14;1744860;82;21082;-86
2020/12/17 04:20:53;;;;;;;30.00;17.42;;;;;;;1.66;75.64;97487.05;1745526;82;21085;-86
2020/12/17 04:23:23;;;;;;;28.38;17.67;;;;;;;1.68;75.39;97478.72;1735308;79;21132;-84
2020/12/17 04:26:33;;;;;;;29.80;17.45;;;;;;;1.69;75.19;97479.55;1725048;82;21059;-84
2020/12/17 04:29:40;;;;;;;32.10;18.37;;;;;;;1.69;75.12;97480.86;1710574;83;21083;-86
2020/12/17 04:32:12;;;;;;;29.32;18.45;;;;;;;1.67;74.96;97480.09;1744490;82;21125;-86
2020/12/17 04:34:43;;;;;;;33.30;18.77;;;;;;;1.59;74.80;97478.67;1733348;83;21100;-87
2020/12/17 04:37:14;;;;;;;31.57;18.30;;;;;;;1.50;75.00;97489.51;1744683;82;21046;-85
2020/12/17 04:39:44;;;;;;;32.88;18.57;;;;;;;1.47;75.11;97489.64;1733275;83;21020;-87
2020/12/17 04:42:17;;;;;;;30.97;19.15;;;;;;;1.44;75.10;97493.69;1744453;82;21472;-85
2020/12/17 04:44:47;;;;;;;34.53;21.68;;;;;;;1.40;75.24;97489.54;1733372;83;21242;-85
2020/12/17 04:47:19;;;;;;;41.50;25.90;;;;;;;1.40;75.40;97490.84;1745031;82;21122;-85
2020/12/17 04:49:53;;;;;;;32.98;21.73;;;;;;;1.43;75.33;97483.39;1733729;83;21068;-86
2020/12/17 04:52:24;;;;;;;32.60;20.23;;;;;;;1.40;75.13;97483.52;1744769;82;21066;-86
2020/12/17 04:54:55;;;;;;;40.48;26.73;;;;;;;1.36;75.26;97482.80;1733008;83;21208;-85
2020/12/17 04:57:27;;;;;;;34.70;22.80;;;;;;;1.34;75.18;97489.82;1744501;82;21085;-84
2020/12/17 04:59:58;;;;;;;31.20;18.40;;;;;;;1.33;75.31;97488.14;1733345;83;21041;-87
2020/12/17 05:03:13;;;;;;;28.65;17.85;;;;;;;1.34;75.22;97492.42;1737606;78;21346;31
2020/12/17 05:06:27;;;;;;;26.95;17.12;;;;;;;1.28;75.33;97494.83;1645879;85;21165;-86
2020/12/17 05:09:48;;;;;;;24.75;15.48;;;;;;;1.32;75.84;97495.55;1770703;77;21091;-86
2020/12/17 05:13:00;;;;;;;25.75;14.80;;;;;;;1.37;76.12;97496.64;1746372;78;21045;-86
2020/12/17 05:16:25;;;;;;;27.87;15.75;;;;;;;1.42;76.51;97497.25;1711247;79;21239;31
2020/12/17 05:19:42;;;;;;;25.05;14.75;;;;;;;1.48;76.74;97501.73;1732964;78;21070;-87
2020/12/17 05:23:44;;;;;;;23.20;14.18;;;;;;;1.59;76.69;97500.74;1724283;78;21227;31
2020/12/17 05:27:08;;;;;;;26.93;16.15;;;;;;;1.71;76.51;97495.89;1687763;78;22752;31
2020/12/17 05:30:41;;;;;;;27.55;15.35;;;;;;;1.78;76.20;97499.88;1716221;83;21173;-87
2020/12/17 14:09:29;;;;;;;48.08;23.67;;;;;;;3.54;73.83;97496.95;1640911;83;21262;-83
2020/12/17 14:17:06;;;;;;;43.47;24.57;;;;;;;3.42;74.10;97497.16;1563608;89;21093;-83
2020/12/17 14:32:06;;;;;;;;;;;;;;;;;;;;;
2020/12/17 14:35:04;;;;;;;47.53;27.42;;;;;;;3.27;74.86;97512.31;1566658;88;21104;-84
2020/12/17 14:38:33;;;;;;;40.50;23.22;;;;;;;3.27;74.66;97514.08;1562110;88;21208;-84
2020/12/17 15:01:35;;;;;;;43.35;22.98;;;;;;;3.42;74.52;97524.96;1594794;84;21289;-86
2020/12/17 15:16:30;;;;;;;50.38;25.20;;;;;;;3.14;74.94;97536.84;1654609;81;21220;-84
2020/12/17 15:31:35;;;;;;;;;;;;;;;2.94;75.62;97539.63;1582685;84;21167;-84
2020/12/17 15:34:56;;;;;;;68.78;35.58;;;;;;;2.93;75.70;97547.89;1545052;92;20285;-84
2020/12/17 15:41:58;;;;;;;64.17;33.33;;;;;;;2.97;75.45;97552.95;1547668;86;21439;-82
2020/12/17 15:45:48;;;;;;;54.60;28.40;;;;;;;2.85;75.59;97549.22;1568000;83;21376;31
2020/12/17 15:49:19;;;;;;;42.77;22.33;;;;;;;2.90;75.76;97557.59;1520314;89;21265;31
2020/12/17 15:52:39;;;;;;;47.55;24.45;;;;;;;2.87;74.98;97553.41;1857492;76;27937;-82
2020/12/17 15:55:52;;;;;;;46.60;28.42;;;;;;;2.66;75.44;97564.88;1742169;77;21183;-85
2020/12/17 15:59:06;;;;;;;43.38;21.07;;;;;;;2.52;75.90;97564.27;1711305;78;21134;31
2020/12/17 16:02:12;;;;;;;52.00;30.52;;;;;;;2.48;76.29;97567.09;1682550;85;21132;-84
2020/12/17 16:05:11;;;;;;;50.23;28.27;;;;;;;2.48;76.60;97569.69;1682297;84;21165;-85
2020/12/17 16:08:32;;;;;;;42.60;22.97;;;;;;;2.46;76.76;97569.77;1668314;83;21110;-84
2020/12/17 16:11:14;;;;;;;48.42;24.07;;;;;;;2.51;76.89;97570.39;1682894;83;21074;-85
2020/12/17 16:14:41;;;;;;;49.50;26.52;;;;;;;2.59;76.62;97573.91;1697919;79;21253;-84
2020/12/17 16:17:26;;;;;;;55.73;28.80;;;;;;;2.58;76.60;97568.33;1711970;78;21241;-84
2020/12/17 16:20:15;;;;;;;54.40;30.92;;;;;;;2.62;76.63;97574.61;1718568;79;21152;-84
2020/12/17 16:23:18;;;;;;;45.92;24.18;;;;;;;2.63;76.52;97569.78;1718247;83;21097;-83
2020/12/17 16:25:52;;;;;;;48.98;26.82;;;;;;;2.62;76.23;97570.70;1676780;83;21145;-82
2020/12/17 16:28:24;;;;;;;53.15;27.77;;;;;;;2.56;76.51;97572.77;1717244;83;21153;-83
2020/12/17 16:30:57;;;;;;;48.95;27.70;;;;;;;2.55;76.62;97573.23;1717750;83;21077;-83
2020/12/17 16:33:47;;;;;;;43.08;23.65;;;;;;;2.56;76.68;97575.38;1683655;83;21168;-83
2020/12/17 16:36:22;;;;;;;40.88;21.25;;;;;;;2.58;76.69;97567.03;1717324;83;21153;-83
2020/12/17 16:38:52;;;;;;;43.00;23.18;;;;;;;2.61;76.30;97567.73;1717783;83;21169;-82
2020/12/17 16:41:34;;;;;;;37.93;20.08;;;;;;;2.62;76.25;97570.70;1717797;83;21346;-85
2020/12/17 16:44:06;;;;;;;42.53;23.12;;;;;;;2.65;76.13;97570.54;1670329;85;26552;-83
2020/12/17 16:46:44;;;;;;;41.13;23.62;;;;;;;2.67;76.04;97567.89;1683646;84;21245;-83
2020/12/17 16:49:17;;;;;;;46.68;24.95;;;;;;;2.73;75.93;97571.48;1684887;85;21590;-83
2020/12/17 16:52:13;;;;;;;43.25;23.25;;;;;;;2.80;75.76;97572.01;1680126;81;21089;-85
2020/12/17 16:55:05;;;;;;;41.75;20.72;;;;;;;2.80;75.43;97571.55;1657783;86;21122;-81
2020/12/17 16:57:49;;;;;;;42.75;22.48;;;;;;;2.76;75.37;97571.31;1657141;85;21077;-83
2020/12/17 17:00:40;;;;;;;41.13;23.10;;;;;;;2.70;75.38;97566.88;1656675;85;21098;-83
2020/12/17 17:03:13;;;;;;;39.33;21.30;;;;;;;2.65;75.57;97569.23;1655906;86;21181;-83
2020/12/17 17:05:46;;;;;;;34.80;19.20;;;;;;;2.72;75.67;97570.23;1655923;86;21210;-83
2020/12/17 17:08:18;;;;;;;37.73;20.35;;;;;;;2.81;75.49;97573.23;1637089;86;21224;-84
2020/12/17 17:10:47;;;;;;;39.38;21.17;;;;;;;2.90;75.14;97564.10;1656305;86;21189;-84
2020/12/17 17:13:18;;;;;;;44.60;24.75;;;;;;;2.94;74.84;97563.03;1656727;86;21188;-83
2020/12/17 17:15:48;;;;;;;44.18;23.52;;;;;;;2.96;74.63;97562.48;1655698;86;21097;-82
2020/12/17 17:18:17;;;;;;;49.50;25.65;;;;;;;2.98;74.52;97567.17;1655568;86;21059;-84
2020/12/17 17:20:47;;;;;;;40.83;22.90;;;;;;;2.90;74.59;97563.64;1656102;86;21081;-84
2020/12/17 17:23:20;;;;;;;42.30;22.50;;;;;;;2.85;74.83;97563.06;1655918;86;21160;-82
2020/12/17 17:25:50;;;;;;;46.08;24.55;;;;;;;2.80;75.18;97561.61;1655192;86;21626;-82
2020/12/17 17:28:25;;;;;;;48.05;24.52;;;;;;;2.73;75.37;97567.58;1655540;86;21118;-82
2020/12/17 17:30:59;;;;;;;48.08;25.23;;;;;;;2.72;75.64;97564.57;1655530;86;21153;-84
2020/12/17 17:33:30;;;;;;;44.15;22.93;;;;;;;2.76;75.75;97567.41;1656378;86;21381;-82
2020/12/17 17:36:11;;;;;;;42.65;22.40;;;;;;;2.78;75.41;97567.33;1656552;86;21197;-81
2020/12/17 17:38:45;;;;;;;43.35;24.98;;;;;;;2.74;75.35;97557.55;1655492;86;21066;-82
2020/12/17 17:41:14;;;;;;;45.23;22.67;;;;;;;2.75;75.35;97559.69;1655504;86;21178;-83
2020/12/17 17:43:44;;;;;;;43.85;22.52;;;;;;;2.80;75.53;97557.24;1656031;86;21129;-82
2020/12/17 17:46:17;;;;;;;42.53;22.25;;;;;;;2.85;75.40;97552.66;1654859;86;21609;-81
2020/12/17 17:48:47;;;;;;;42.33;21.17;;;;;;;2.85;75.31;97550.52;1655642;86;21109;-83
2020/12/17 17:51:16;;;;;;;40.28;21.00;;;;;;;2.76;75.29;97550.50;1655127;86;21121;-83
2020/12/17 17:53:47;;;;;;;40.40;21.15;;;;;;;2.68;75.50;97560.00;1660620;85;21101;-84
2020/12/17 17:56:17;;;;;;;44.25;22.80;;;;;;;2.62;75.59;97561.61;1660258;86;21073;-82
2020/12/17 17:58:47;;;;;;;43.78;24.60;;;;;;;2.64;75.79;97561.06;1660724;86;21217;-80
2020/12/17 18:01:19;;;;;;;43.63;25.20;;;;;;;2.70;75.89;97559.08;1660558;86;21089;-82
2020/12/17 18:03:50;;;;;;;42.93;24.07;;;;;;;2.78;75.87;97552.56;1633037;86;21173;-82
2020/12/17 18:06:39;;;;;;;47.38;27.90;;;;;;;2.79;75.56;97549.06;1661391;86;21173;-80
2020/12/17 18:09:21;;;;;;;47.95;26.20;;;;;;;2.76;75.58;97545.30;1660619;86;21176;-83
2020/12/17 18:11:51;;;;;;;44.03;23.67;;;;;;;2.79;75.65;97548.23;1660001;86;21279;-83
2020/12/17 18:14:20;;;;;;;48.15;24.15;;;;;;;2.80;75.68;97552.04;1660241;86;21100;-81
2020/12/17 18:16:50;;;;;;;50.50;26.17;;;;;;;2.86;75.56;97550.43;1659974;86;21689;-83
2020/12/17 18:19:21;;;;;;;47.65;25.50;;;;;;;2.87;75.44;97546.91;1691954;84;21066;-81
2020/12/17 18:21:57;;;;;;;43.87;24.18;;;;;;;2.89;75.42;97548.95;1692851;84;21239;-81
2020/12/17 18:24:28;;;;;;;48.50;24.72;;;;;;;2.88;75.33;97546.44;1692223;84;21616;-82
2020/12/17 18:27:01;;;;;;;48.15;26.60;;;;;;;2.88;75.32;97547.28;1692443;84;21190;-81
2020/12/17 18:29:31;;;;;;;52.75;28.85;;;;;;;2.85;75.12;97541.41;1691837;84;21150;-83
2020/12/17 18:32:01;;;;;;;52.58;29.10;;;;;;;2.77;75.28;97543.55;1691874;84;21170;-82
2020/12/17 18:34:33;;;;;;;49.00;26.37;;;;;;;2.73;75.33;97540.27;1691805;84;21118;-82
2020/12/17 18:37:03;;;;;;;51.33;28.32;;;;;;;2.72;75.45;97539.86;1692511;84;21405;-84
2020/12/17 18:39:33;;;;;;;49.88;28.65;;;;;;;2.77;75.38;97544.84;1691903;84;21083;-80
2020/12/17 18:42:02;;;;;;;46.53;25.08;;;;;;;2.81;75.26;97537.27;1691999;84;21588;-81
2020/12/17 18:44:31;;;;;;;40.30;22.37;;;;;;;2.84;75.09;97534.50;1691941;84;21257;-82
2020/12/17 18:47:01;;;;;;;42.17;23.87;;;;;;;2.79;74.79;97535.22;1691288;84;21503;-81
2020/12/17 18:49:31;;;;;;;46.88;23.32;;;;;;;2.72;74.96;97531.23;1691037;84;21236;-82
2020/12/17 18:51:59;;;;;;;48.70;27.30;;;;;;;2.74;75.03;97528.95;1689235;84;21075;-81
2020/12/17 18:54:28;;;;;;;50.25;25.75;;;;;;;2.77;74.94;97522.27;1681624;85;21107;-81
2020/12/17 18:56:57;;;;;;;50.38;26.35;;;;;;;2.79;74.95;97520.92;1672054;85;21238;-81
2020/12/17 18:59:26;;;;;;;44.08;24.55;;;;;;;2.85;75.10;97529.70;1681819;85;21225;-82
2020/12/17 19:01:55;;;;;;;58.30;30.08;;;;;;;2.91;74.94;97533.30;1672194;85;21447;-82
2020/12/17 19:04:25;;;;;;;52.65;30.23;;;;;;;2.91;74.88;97525.48;1681627;85;21219;-83
2020/12/17 19:06:55;;;;;;;49.33;26.40;;;;;;;2.95;74.73;97531.73;1672507;85;21128;-81
2020/12/17 19:09:24;;;;;;;54.60;29.02;;;;;;;3.00;74.42;97530.66;1681834;85;21166;-81
2020/12/17 19:11:53;;;;;;;55.65;27.58;;;;;;;2.93;74.34;97537.48;1672104;85;21170;-84
2020/12/17 19:14:22;;;;;;;47.58;26.65;;;;;;;2.88;74.46;97538.17;1681857;85;21233;-82
2020/12/17 19:16:51;;;;;;;53.13;28.65;;;;;;;2.83;74.59;97540.63;1672461;85;21144;-82
2020/12/17 19:19:20;;;;;;;53.13;30.05;;;;;;;2.81;74.93;97539.41;1682771;85;21120;-81
2020/12/17 19:21:51;;;;;;;51.58;26.90;;;;;;;2.86;74.96;97537.89;1672829;85;21056;-82
2020/12/17 19:24:20;;;;;;;51.37;27.27;;;;;;;2.92;74.88;97542.77;1682010;85;21235;-83
2020/12/17 19:26:51;;;;;;;51.40;27.55;;;;;;;2.97;74.80;97538.18;1672512;85;22190;-81
2020/12/17 19:29:21;;;;;;;54.33;28.65;;;;;;;3.01;74.60;97540.14;1672280;85;21127;-81
2020/12/17 19:31:54;;;;;;;48.85;25.37;;;;;;;2.95;74.53;97536.09;1672743;85;21181;-82
2020/12/17 19:34:25;;;;;;;51.05;28.17;;;;;;;2.89;74.53;97533.81;1681924;85;21154;-83
2020/12/17 19:36:58;;;;;;;43.98;22.67;;;;;;;2.83;74.48;97540.16;1672256;85;21195;-83
2020/12/17 19:39:29;;;;;;;39.63;21.45;;;;;;;2.80;74.75;97540.80;1681813;85;21447;-81
2020/12/17 19:42:01;;;;;;;38.23;21.20;;;;;;;2.84;74.61;97537.10;1681745;85;21174;-83
2020/12/17 19:44:31;;;;;;;33.13;18.65;;;;;;;2.86;74.32;97541.33;1672530;85;21111;-81
2020/12/17 19:47:03;;;;;;;34.08;19.70;;;;;;;2.85;73.97;97541.41;1681881;85;21059;-82
2020/12/17 19:49:32;;;;;;;32.88;17.95;;;;;;;2.85;73.96;97534.91;1682127;85;21155;-82
2020/12/17 19:52:01;;;;;;;36.90;19.48;;;;;;;2.85;73.56;97528.41;1673034;85;21258;-81
2020/12/17 19:54:32;;;;;;;35.65;19.32;;;;;;;2.77;73.70;97530.53;1685881;83;21264;-83
2020/12/17 19:57:03;;;;;;;34.33;18.77;;;;;;;2.73;73.79;97535.07;1686616;85;21566;-83
2020/12/17 19:59:32;;;;;;;35.80;19.57;;;;;;;2.73;73.90;97534.20;1686800;85;21153;-81
2020/12/17 20:02:00;;;;;;;38.25;20.45;;;;;;;2.70;73.85;97535.67;1686344;85;21205;-82
2020/12/17 20:04:33;;;;;;;36.70;20.25;;;;;;;2.63;73.74;97537.28;1655101;86;21444;-82
2020/12/17 20:07:02;;;;;;;31.30;16.27;;;;;;;2.59;73.80;97530.55;1661986;86;21156;-83
2020/12/17 20:09:31;;;;;;;33.85;17.92;;;;;;;2.49;73.72;97534.55;1654749;86;21221;-83
2020/12/17 20:12:01;;;;;;;37.83;19.85;;;;;;;2.41;73.92;97540.09;1655333;86;21068;-81
2020/12/17 20:14:33;;;;;;;35.98;19.45;;;;;;;2.34;74.18;97537.42;1655410;86;21576;-82
2020/12/17 20:17:03;;;;;;;34.60;19.25;;;;;;;2.31;74.21;97529.80;1654958;86;21387;-83
2020/12/17 20:19:31;;;;;;;39.98;22.62;;;;;;;2.20;74.44;97526.88;1654689;86;21161;-83
2020/12/17 20:22:02;;;;;;;41.23;20.80;;;;;;;2.09;74.94;97528.69;1654985;86;21178;-83
2020/12/17 20:24:31;;;;;;;49.80;23.60;;;;;;;2.08;75.16;97532.20;1654866;86;21205;-81
2020/12/17 20:27:06;;;;;;;68.12;29.70;;;;;;;2.09;75.32;97533.88;1655329;86;21107;-82
2020/12/17 20:29:42;;;;;;;56.53;26.77;;;;;;;2.10;75.33;97530.82;1655870;86;21241;-81
2020/12/17 20:32:12;;;;;;;47.30;24.00;;;;;;;2.08;75.57;97530.06;1655003;86;21614;-82
2020/12/17 20:34:42;;;;;;;78.97;34.60;;;;;;;2.11;75.61;97522.95;1654796;86;21206;-83
2020/12/17 20:37:11;;;;;;;95.35;44.03;;;;;;;2.14;75.38;97528.47;1654800;86;21186;-81
2020/12/17 20:39:41;;;;;;;44.00;23.20;;;;;;;2.10;75.55;97534.27;1655371;86;21058;-83
2020/12/17 20:42:10;;;;;;;44.63;21.50;;;;;;;2.11;75.50;97529.44;1654771;86;21229;-82
2020/12/17 20:44:43;;;;;;;39.60;21.12;;;;;;;2.09;75.61;97529.98;1654913;86;21530;-80
2020/12/17 20:47:15;;;;;;;37.20;20.00;;;;;;;2.10;75.73;97530.82;1654765;86;21161;-82
2020/12/17 20:49:45;;;;;;;47.27;26.52;;;;;;;2.08;75.88;97525.71;1654521;86;21154;-83
2020/12/17 20:52:14;;;;;;;47.45;23.60;;;;;;;2.10;75.81;97527.77;1654628;86;21145;-80
2020/12/17 20:54:44;;;;;;;64.75;30.77;;;;;;;2.10;75.82;97528.23;1654709;86;21383;-82
2020/12/17 20:57:13;;;;;;;68.02;33.00;;;;;;;2.11;75.87;97529.91;1654801;86;21178;-82
2020/12/17 20:59:42;;;;;;;103.78;44.45;;;;;;;2.08;76.02;97533.50;1654899;86;21165;-81
2020/12/17 21:02:11;;;;;;;64.47;30.92;;;;;;;2.13;76.32;97530.23;1654944;86;21197;-83
2020/12/17 21:04:46;;;;;;;55.70;30.05;;;;;;;2.21;76.35;97531.15;1654855;86;21176;-83
2020/12/17 21:07:12;;;;;;;51.65;27.45;;;;;;;2.32;76.15;97528.88;1654981;86;21491;-82
2020/12/17 21:09:41;;;;;;;49.48;26.10;;;;;;;2.41;75.87;97532.77;1654385;86;21253;-82
2020/12/17 21:12:10;;;;;;;47.98;23.98;;;;;;;2.44;75.65;97526.13;1653815;86;21236;-82
2020/12/17 21:14:41;;;;;;;46.95;23.32;;;;;;;2.47;75.41;97518.16;1654610;86;21149;-82
2020/12/17 21:17:09;;;;;;;43.28;24.52;;;;;;;2.43;75.32;97520.52;1655316;86;21087;-82
2020/12/17 21:19:38;;;;;;;60.23;30.85;;;;;;;2.41;75.45;97520.60;1655249;86;21219;-83
2020/12/17 21:22:08;;;;;;;51.02;27.02;;;;;;;2.40;75.48;97520.23;1655034;86;21552;-83
2020/12/17 21:24:37;;;;;;;51.23;26.50;;;;;;;2.40;75.66;97519.39;1655085;86;21201;-83
2020/12/17 21:27:07;;;;;;;44.80;23.85;;;;;;;2.43;75.47;97515.78;1654917;86;21086;-82
2020/12/17 21:29:35;;;;;;;42.48;23.22;;;;;;;2.39;75.36;97517.25;1654771;86;21118;-83
2020/12/17 21:32:04;;;;;;;58.78;30.85;;;;;;;2.39;75.24;97515.11;1655075;86;21374;-82
2020/12/17 21:34:34;;;;;;;48.20;25.00;;;;;;;2.35;75.23;97514.88;1654904;86;21153;-84
2020/12/17 21:37:03;;;;;;;42.03;23.05;;;;;;;2.33;75.19;97513.66;1655423;86;21248;-82
2020/12/17 21:39:32;;;;;;;41.88;22.37;;;;;;;2.27;75.19;97511.36;1654934;86;21141;-82
2020/12/17 21:42:00;;;;;;;45.05;23.60;;;;;;;2.26;75.42;97509.69;1654710;86;21492;-81
2020/12/17 21:44:43;;;;;;;39.73;22.22;;;;;;;2.27;75.23;97513.12;1653967;85;21193;-82
2020/12/17 21:47:12;;;;;;;47.00;24.18;;;;;;;2.19;75.23;97513.94;1654934;86;21165;-81
2020/12/17 21:49:41;;;;;;;46.58;24.70;;;;;;;2.10;75.68;97514.78;1654968;86;21182;-83
2020/12/17 21:52:11;;;;;;;46.40;24.57;;;;;;;2.11;75.96;97511.26;1654979;86;21118;-82
2020/12/17 21:54:40;;;;;;;51.15;26.12;;;;;;;2.21;76.02;97511.66;1637062;85;21359;-82
2020/12/17 21:57:10;;;;;;;49.70;25.10;;;;;;;2.29;75.95;97515.17;1631119;88;22190;-81
2020/12/17 21:59:38;;;;;;;47.15;25.97;;;;;;;2.33;75.82;97516.72;1630959;88;21114;-82
2020/12/17 22:02:10;;;;;;;51.28;25.35;;;;;;;2.39;75.70;97511.21;1630138;88;21126;-82
2020/12/17 22:04:39;;;;;;;53.15;28.20;;;;;;;2.43;75.40;97520.52;1589595;88;21106;-82